Hanover, Maine
Current Conditions -  °F | °C
As of 2:52 AM on Thursday 23 Oct 2014 (Local Time) from KBML Reporting Station
Overcast Overcast  
Wind Chill: 40°   Ceiling: 1700
Heat Index: 45°   Visibility: 7mi
Dew Point: 43°   Wind: 10mph
Humidity: 93%   Direction: 360°N
Pressure: 30.01"   Gusts: NA
Location:  44.5°N, 70.69°W
Report Text: KBML 230652Z AUTO 36009KT 7SM OVC017 07/06 A3001 RMK AO2 RAB10E42 SLP167 P0000 T00720061
Loading
Personal Weather Stations






























Interactive Weather Map
Tropical Storm Tracking
New forecast layout! Learn more

10-Day Weather Forecast

Advertisements
Track Severe Weather on mobile